Time;durP1;ratioP1;P1;durP2;ratioP2;P2;SDS_P1;SDS_P2;PMS_P1;PMS_P2;Temp;Humidity;BMP_temperature;BMP_pressure;BME280_temperature;BME280_humidity;BME280_pressure;Samples;Min_cycle;Max_cycle;Signal;HPM_P1;HPM_P2
2022/03/07 00:02:10;;;;;;;5.38;3.40;;;1.50;99.90;;;;;;5064138;28;20627;-74
2022/03/07 00:04:37;;;;;;;5.60;3.42;;;1.50;99.90;;;;;;5066060;28;20204;-72
2022/03/07 00:07:03;;;;;;;5.00;3.28;;;;;;;;;;5063911;28;20231;-72
2022/03/07 00:09:29;;;;;;;4.53;3.40;;;;;;;;;;5066719;28;20226;-72
2022/03/07 00:11:56;;;;;;;8.13;3.33;;;;;;;;;;5056759;28;20187;-72
2022/03/07 00:14:22;;;;;;;5.35;3.25;;;;;;;;;;5055645;28;20186;-72
2022/03/07 00:16:50;;;;;;;3.28;2.60;;;;;;;;;;5059926;28;20212;-72
2022/03/07 00:19:16;;;;;;;11.65;3.15;;;1.00;99.90;;;;;;5056637;28;20655;-74
2022/03/07 00:21:44;;;;;;;6.22;2.50;;;;;;;;;;5055602;28;20192;-74
2022/03/07 00:24:10;;;;;;;3.75;2.60;;;;;;;;;;5055363;28;20517;-73
2022/03/07 00:26:36;;;;;;;9.00;3.42;;;;;;;;;;5064935;28;20221;-73
2022/03/07 00:29:02;;;;;;;3.58;2.83;;;;;;;;;;5060073;28;20183;-73
2022/03/07 00:31:31;;;;;;;3.33;2.47;;;;;;;;;;5056605;28;20172;-74
2022/03/07 00:33:58;;;;;;;4.15;3.00;;;;;;;;;;5063637;28;20673;-72
2022/03/07 00:36:25;;;;;;;3.58;2.72;;;;;;;;;;5055821;28;20709;-72
2022/03/07 00:38:52;;;;;;;3.47;2.80;;;;;;;;;;5060083;28;20171;-72
2022/03/07 00:41:19;;;;;;;3.88;2.50;;;;;;;;;;5065894;28;20579;-72
2022/03/07 00:43:46;;;;;;;4.50;3.20;;;;;;;;;;5055431;28;20648;-72
2022/03/07 00:46:12;;;;;;;6.88;3.88;;;;;;;;;;5067356;28;20183;-72
2022/03/07 00:48:43;;;;;;;6.88;3.30;;;;;;;;;;5061199;28;20264;-72
2022/03/07 00:51:14;;;;;;;5.10;3.05;;;;;;;;;;5058461;28;20191;-72
2022/03/07 00:53:40;;;;;;;5.65;3.05;;;;;;;;;;5054515;28;20179;-72
2022/03/07 00:56:10;;;;;;;6.68;3.45;;;;;;;;;;5068343;28;20186;-72
2022/03/07 00:58:37;;;;;;;4.63;3.28;;;;;;;;;;5058991;28;20183;-72
2022/03/07 01:01:03;;;;;;;4.63;3.42;;;;;;;;;;5069192;28;20651;-73
2022/03/07 01:03:29;;;;;;;6.68;3.92;;;0.20;1.00;;;;;;5061686;28;20175;-73
2022/03/07 01:05:55;;;;;;;12.83;4.33;;;;;;;;;;5051701;28;20550;-73
2022/03/07 01:08:22;;;;;;;3.95;3.10;;;;;;;;;;5052885;28;20569;-74
2022/03/07 01:10:49;;;;;;;4.72;3.40;;;;;;;;;;5064184;28;20171;-73
2022/03/07 01:13:15;;;;;;;5.25;3.40;;;;;;;;;;5052901;28;20179;-73
2022/03/07 01:15:41;;;;;;;5.15;3.28;;;;;;;;;;5068745;28;20203;-73
2022/03/07 01:18:07;;;;;;;7.82;3.95;;;;;;;;;;5062787;28;20179;-73
2022/03/07 01:20:33;;;;;;;7.00;3.67;;;;;;;;;;5057928;28;20701;-73
2022/03/07 01:23:00;;;;;;;6.65;3.85;;;;;;;;;;5071076;28;20233;-74
2022/03/07 01:25:31;;;;;;;7.05;4.10;;;;;;;;;;5054867;28;20252;-73
2022/03/07 01:27:58;;;;;;;9.05;4.03;;;;;;;;;;5063626;28;20286;-73
2022/03/07 01:30:24;;;;;;;7.32;3.97;;;;;;;;;;5054155;28;20180;-73
2022/03/07 01:32:53;;;;;;;10.38;4.68;;;;;;;;;;5054042;28;20186;-74
2022/03/07 01:35:20;;;;;;;8.05;4.65;;;0.70;99.90;;;;;;5043743;28;20209;-73
2022/03/07 01:37:46;;;;;;;11.77;5.07;;;0.70;99.90;;;;;;5062173;28;20182;-74
2022/03/07 01:40:13;;;;;;;6.22;3.75;;;;;;;;;;5052624;28;20167;-73
2022/03/07 01:42:39;;;;;;;6.30;4.15;;;;;;;;;;5054433;28;20262;-74
2022/03/07 01:45:12;;;;;;;8.40;4.45;;;0.90;99.90;;;;;;5056624;28;20196;-74
2022/03/07 01:47:39;;;;;;;9.90;5.15;;;;;;;;;;5053969;28;20195;-73
2022/03/07 01:50:08;;;;;;;7.47;4.85;;;0.90;99.90;;;;;;5058092;28;20179;-74
2022/03/07 01:52:38;;;;;;;8.07;4.07;;;0.80;99.90;;;;;;5055295;28;20202;-73
2022/03/07 01:55:09;;;;;;;8.25;4.68;;;0.90;99.90;;;;;;5058429;28;20201;-73
2022/03/07 01:57:36;;;;;;;7.05;4.40;;;;;;;;;;5061619;28;20194;-73
2022/03/07 02:00:07;;;;;;;14.68;5.65;;;0.90;99.90;;;;;;5056919;28;20265;-73
2022/03/07 02:02:34;;;;;;;8.43;5.07;;;;;;;;;;5053774;28;20585;-73
2022/03/07 02:05:00;;;;;;;10.85;5.75;;;;;;;;;;5053412;28;20588;-73
2022/03/07 02:07:26;;;;;;;12.10;6.03;;;;;;;;;;5053715;28;20200;-74
2022/03/07 02:09:52;;;;;;;11.68;5.55;;;;;;;;;;5052328;28;20639;-74
2022/03/07 02:12:19;;;;;;;10.00;5.38;;;;;;;;;;5053718;28;20560;-73
2022/03/07 02:14:50;;;;;;;10.07;5.63;;;;;;;;;;5059804;28;20263;-73
2022/03/07 02:17:16;;;;;;;10.45;6.18;;;;;;;;;;5055044;28;20187;-74
2022/03/07 02:19:43;;;;;;;8.70;5.03;;;;;;;;;;5056090;28;20175;-72
2022/03/07 02:22:10;;;;;;;11.23;6.13;;;;;;;;;;5061322;28;20489;-72
2022/03/07 02:24:36;;;;;;;11.60;5.65;;;;;;;;;;5066683;28;20244;-72
2022/03/07 02:27:07;;;;;;;13.52;6.30;;;0.90;99.90;;;;;;5067008;28;20207;-72
2022/03/07 02:29:33;;;;;;;13.68;6.05;;;;;;;;;;5061531;28;20190;-73
2022/03/07 02:32:00;;;;;;;13.75;6.60;;;;;;;;;;5057973;28;20168;-72
2022/03/07 02:34:26;;;;;;;11.98;6.38;;;;;;;;;;5060025;28;20183;-73
2022/03/07 02:36:55;;;;;;;9.75;6.13;;;;;;;;;;5054617;28;20229;-73
2022/03/07 02:39:22;;;;;;;11.35;6.70;;;;;;;;;;5067151;28;20186;-73
2022/03/07 02:41:48;;;;;;;14.85;7.05;;;;;;;;;;5052994;28;20247;-73
2022/03/07 02:44:19;;;;;;;14.73;7.10;;;;;;;;;;5052595;28;20165;-72
2022/03/07 02:46:45;;;;;;;10.77;6.57;;;;;;;;;;5063013;28;20207;-72
2022/03/07 02:49:12;;;;;;;10.43;5.93;;;;;;;;;;5063340;28;20179;-72
2022/03/07 02:51:38;;;;;;;12.25;6.68;;;;;;;;;;5040151;28;20243;-72
2022/03/07 02:54:04;;;;;;;11.20;6.47;;;;;;;;;;5056237;28;20175;-72
2022/03/07 02:56:32;;;;;;;12.70;7.25;;;;;;;;;;5057491;28;20174;-72
2022/03/07 02:58:58;;;;;;;12.38;6.95;;;;;;;;;;5062384;28;20694;-72
2022/03/07 03:01:24;;;;;;;16.80;7.72;;;;;;;;;;5066110;28;20267;-73
2022/03/07 03:03:53;;;;;;;13.75;7.70;;;0.80;1.00;;;;;;5052611;28;20215;-72
2022/03/07 03:06:19;;;;;;;15.20;7.30;;;;;;;;;;5056552;28;20266;-72
2022/03/07 03:08:50;;;;;;;13.17;7.40;;;;;;;;;;5068051;28;20314;-72
2022/03/07 03:11:16;;;;;;;18.85;7.63;;;;;;;;;;5053393;28;20816;-72
2022/03/07 03:13:42;;;;;;;16.73;8.45;;;;;;;;;;5059654;28;20176;-72
2022/03/07 03:16:08;;;;;;;12.68;7.28;;;;;;;;;;5054407;28;20180;-72
2022/03/07 03:18:34;;;;;;;12.90;6.93;;;;;;;;;;5052779;28;20175;-72
2022/03/07 03:21:00;;;;;;;14.82;7.18;;;;;;;;;;5056974;28;20221;-72
2022/03/07 03:23:27;;;;;;;15.32;7.80;;;;;;;;;;5072130;28;20191;-72
2022/03/07 03:25:53;;;;;;;16.17;7.78;;;;;;;;;;5058018;28;20232;-72
2022/03/07 03:28:19;;;;;;;12.57;7.30;;;;;;;;;;5072762;28;20191;-72
2022/03/07 03:30:45;;;;;;;12.68;7.00;;;;;;;;;;5062289;28;20178;-72
2022/03/07 03:33:11;;;;;;;12.80;6.85;;;;;;;;;;5076454;28;20186;-72
2022/03/07 03:35:37;;;;;;;15.68;7.88;;;;;;;;;;5058999;28;20183;-73
2022/03/07 03:38:04;;;;;;;16.15;8.25;;;-0.40;99.90;;;;;;5056429;28;20180;-73
2022/03/07 03:40:32;;;;;;;12.95;7.45;;;;;;;;;;5058492;28;20564;-73
2022/03/07 03:43:07;;;;;;;13.60;7.40;;;;;;;;;;5056424;28;20187;-74
2022/03/07 03:45:34;;;;;;;15.65;7.95;;;;;;;;;;5059239;28;20191;-73
2022/03/07 03:48:00;;;;;;;15.05;7.70;;;;;;;;;;5056237;28;20203;-73
2022/03/07 03:50:26;;;;;;;17.90;7.18;;;;;;;;;;5056124;28;20179;-73
2022/03/07 03:52:52;;;;;;;14.07;7.50;;;;;;;;;;5056148;28;20171;-73
2022/03/07 03:55:21;;;;;;;16.40;7.43;;;;;;;;;;5062620;28;20479;-74
2022/03/07 03:57:47;;;;;;;16.88;8.43;;;;;;;;;;5074536;28;20542;-73
2022/03/07 04:00:15;;;;;;;14.98;7.95;;;-0.80;1.00;;;;;;5061912;28;20589;-73
2022/03/07 04:02:44;;;;;;;15.35;7.80;;;;;;;;;;5056150;28;20211;-73
2022/03/07 04:05:14;;;;;;;17.10;7.38;;;-0.90;1.00;;;;;;5062934;28;20192;-73
2022/03/07 04:07:41;;;;;;;23.33;9.35;;;;;;;;;;5057515;28;20214;-72
2022/03/07 04:10:08;;;;;;;17.38;8.45;;;;;;;;;;5064737;28;20190;-72
2022/03/07 04:12:34;;;;;;;16.20;7.57;;;;;;;;;;5062143;28;20660;-73
2022/03/07 04:15:01;;;;;;;16.58;8.00;;;;;;;;;;5065775;28;20663;-72
2022/03/07 04:17:27;;;;;;;28.50;8.90;;;;;;;;;;5055066;28;20245;-72
2022/03/07 04:19:53;;;;;;;20.92;8.30;;;;;;;;;;5055876;28;20175;-72
2022/03/07 04:22:19;;;;;;;17.83;7.80;;;;;;;;;;5055943;28;20668;-72
2022/03/07 04:24:45;;;;;;;17.63;7.95;;;;;;;;;;5070199;28;20194;-72
2022/03/07 04:27:11;;;;;;;24.17;9.53;;;;;;;;;;5069334;28;20630;-72
2022/03/07 04:29:37;;;;;;;16.70;8.18;;;;;;;;;;5062715;28;20920;-73
2022/03/07 04:32:08;;;;;;;17.52;8.70;;;;;;;;;;5069740;28;20689;-73
2022/03/07 04:34:34;;;;;;;19.58;8.65;;;;;;;;;;5054848;28;20186;-72
2022/03/07 04:37:02;;;;;;;17.93;8.50;;;;;;;;;;5070646;28;20605;-73
2022/03/07 04:39:32;;;;;;;21.20;8.88;;;;;;;;;;5056050;28;20410;-73
2022/03/07 04:42:08;;;;;;;19.40;9.35;;;;;;;;;;5054019;28;20172;-74
2022/03/07 04:44:38;;;;;;;24.35;9.73;;;;;;;;;;5061653;28;20187;-73
2022/03/07 04:47:04;;;;;;;20.23;9.48;;;;;;;;;;5057458;28;20202;-73
2022/03/07 04:49:30;;;;;;;18.95;9.13;;;;;;;;;;5054909;28;20175;-74
2022/03/07 04:51:56;;;;;;;21.75;8.82;;;;;;;;;;5056759;28;20182;-73
2022/03/07 04:54:22;;;;;;;15.32;8.23;;;;;;;;;;5049018;28;20179;-72
2022/03/07 04:56:50;;;;;;;14.33;8.60;;;;;;;;;;5067799;28;20236;-72
2022/03/07 04:59:17;;;;;;;19.75;9.05;;;;;;;;;;5053503;28;21061;-73
2022/03/07 05:01:43;;;;;;;21.88;9.50;;;;;;;;;;5054751;28;20664;-72
2022/03/07 05:04:09;;;;;;;19.50;9.65;;;-0.20;1.00;;;;;;5053894;28;20199;-72
2022/03/07 05:06:35;;;;;;;16.23;8.80;;;;;;;;;;5061078;28;20183;-73
2022/03/07 05:09:02;;;;;;;23.38;9.60;;;-0.10;1.00;;;;;;5059945;28;20183;-74
2022/03/07 05:11:28;;;;;;;14.40;8.65;;;;;;;;;;5072578;28;20317;-73
2022/03/07 05:13:55;;;;;;;14.52;8.70;;;;;;;;;;5055978;28;20651;-73
2022/03/07 05:16:26;;;;;;;17.38;9.55;;;;;;;;;;5053105;28;20677;-73
2022/03/07 05:18:52;;;;;;;15.35;8.25;;;;;;;;;;5054197;28;20636;-73
2022/03/07 05:21:20;;;;;;;18.90;9.38;;;;;;;;;;5057817;28;20313;-72
2022/03/07 05:23:46;;;;;;;20.33;8.98;;;;;;;;;;5064077;28;20183;-72
2022/03/07 05:26:12;;;;;;;17.98;9.15;;;;;;;;;;5060301;28;20201;-72
2022/03/07 05:28:38;;;;;;;17.80;9.70;;;;;;;;;;5055673;28;20652;-72
2022/03/07 05:31:05;;;;;;;16.50;8.85;;;;;;;;;;5054727;28;20174;-72
2022/03/07 05:33:31;;;;;;;19.70;10.27;;;;;;;;;;5056560;28;20226;-72
2022/03/07 05:35:57;;;;;;;17.77;9.30;;;;;;;;;;5051496;28;20176;-73
2022/03/07 05:38:23;;;;;;;21.15;9.57;;;;;;;;;;5053506;28;20167;-74
2022/03/07 05:40:50;;;;;;;15.57;8.93;;;;;;;;;;5054886;28;20528;-75
2022/03/07 05:43:20;;;;;;;19.52;9.25;;;;;;;;;;5053132;28;20180;-73
2022/03/07 05:45:46;;;;;;;16.17;9.23;;;;;;;;;;5041563;28;20164;-73
2022/03/07 05:48:12;;;;;;;19.13;9.32;;;;;;;;;;5056126;28;20534;-74
2022/03/07 05:50:44;;;;;;;20.55;9.15;;;;;;;;;;5066988;28;20573;-72
2022/03/07 05:53:14;;;;;;;19.40;9.77;;;;;;;;;;5052404;28;20184;-73
2022/03/07 05:55:41;;;;;;;14.38;7.90;;;;;;;;;;5063656;28;20200;-72
2022/03/07 05:58:07;;;;;;;14.38;8.05;;;;;;;;;;5064557;28;20218;-73
2022/03/07 06:00:38;;;;;;;42.15;8.07;;;;;;;;;;5063666;28;20194;-72
2022/03/07 06:03:04;;;;;;;14.02;7.72;;;;;;;;;;5055952;28;20183;-72
2022/03/07 06:05:31;;;;;;;15.13;8.05;;;;;;;;;;5053577;28;20278;-72
2022/03/07 06:07:57;;;;;;;13.23;7.22;;;;;;;;;;5071047;28;20294;-73
2022/03/07 06:10:24;;;;;;;16.27;8.13;;;;;;;;;;5058683;28;20176;-72
2022/03/07 06:12:50;;;;;;;37.13;8.90;;;;;;;;;;5031335;28;20179;-72
2022/03/07 06:15:20;;;;;;;13.32;7.40;;;;;;;;;;5052175;28;20183;-74
2022/03/07 06:17:54;;;;;;;19.00;7.88;;;-0.40;99.90;;;;;;5056759;28;20178;-72
2022/03/07 06:20:20;;;;;;;13.90;7.55;;;;;;;;;;5052956;28;20179;-72
2022/03/07 06:22:50;;;;;;;12.93;6.72;;;;;;;;;;5065443;28;20690;-75
2022/03/07 06:25:16;;;;;;;13.45;7.20;;;;;;;;;;5064525;28;20171;-72
2022/03/07 06:27:42;;;;;;;12.98;7.78;;;;;;;;;;5059637;28;20249;-73
2022/03/07 06:30:09;;;;;;;13.95;7.32;;;;;;;;;;5058622;28;20167;-72
2022/03/07 06:32:38;;;;;;;12.32;7.55;;;;;;;;;;5055014;28;20647;-74
2022/03/07 06:35:05;;;;;;;15.07;7.90;;;-0.30;99.90;;;;;;5065713;28;20171;-72
2022/03/07 06:37:32;;;;;;;13.70;7.03;;;;;;;;;;5053476;28;20550;-72
2022/03/07 06:40:02;;;;;;;18.63;7.55;;;;;;;;;;5053003;28;20187;-73
2022/03/07 06:42:32;;;;;;;13.88;7.28;;;;;;;;;;5053810;28;20242;-73
2022/03/07 06:44:58;;;;;;;11.32;6.30;;;;;;;;;;5066346;28;20527;-72
2022/03/07 06:47:26;;;;;;;12.93;7.25;;;;;;;;;;5064843;28;20198;-72
2022/03/07 06:49:56;;;;;;;11.38;6.55;;;;;;;;;;5061557;28;20230;-72
2022/03/07 06:52:22;;;;;;;16.88;7.10;;;;;;;;;;5063883;28;20180;-74
2022/03/07 06:54:56;;;;;;;10.60;6.40;;;;;;;;;;5052663;28;20233;-73
2022/03/07 06:57:26;;;;;;;15.55;6.88;;;;;;;;;;5051938;28;20518;-73
2022/03/07 06:59:52;;;;;;;64.47;11.00;;;;;;;;;;5051871;28;20172;-74
2022/03/07 07:02:20;;;;;;;14.07;7.20;;;;;;;;;;5053528;28;20233;-73
2022/03/07 07:04:50;;;;;;;11.75;5.90;;;;;;;;;;5046427;28;20552;-74
2022/03/07 07:07:16;;;;;;;13.30;6.15;;;;;;;;;;5064675;28;20701;-73
2022/03/07 07:09:44;;;;;;;15.07;7.13;;;;;;;;;;5057215;28;20197;-74
2022/03/07 07:12:10;;;;;;;16.67;6.72;;;;;;;;;;5055069;28;20179;-72
2022/03/07 07:14:37;;;;;;;12.75;6.65;;;;;;;;;;5054625;28;20211;-74
2022/03/07 07:17:03;;;;;;;14.55;6.55;;;;;;;;;;5051417;28;20229;-73
2022/03/07 07:19:30;;;;;;;17.88;6.57;;;;;;;;;;5055171;28;20183;-73
2022/03/07 07:21:57;;;;;;;10.80;5.82;;;;;;;;;;5051468;28;20167;-73
2022/03/07 07:24:23;;;;;;;16.83;6.35;;;;;;;;;;5067616;28;20228;-73
2022/03/07 07:26:49;;;;;;;9.90;5.60;;;;;;;;;;5056663;28;20171;-74
2022/03/07 07:29:20;;;;;;;8.80;5.60;;;;;;;;;;5066209;28;20174;-73
2022/03/07 07:31:51;;;;;;;10.15;5.88;;;;;;;;;;5068115;28;20179;-74
2022/03/07 07:34:18;;;;;;;15.77;6.25;;;;;;;;;;5056576;28;20187;-74
2022/03/07 07:36:44;;;;;;;7.72;4.93;;;;;;;;;;5056628;28;20180;-73
2022/03/07 07:39:10;;;;;;;8.13;5.25;;;;;;;;;;5067934;28;20186;-74
2022/03/07 07:41:36;;;;;;;9.88;5.38;;;;;;;;;;5054852;28;20192;-74
2022/03/07 07:44:02;;;;;;;8.47;4.87;;;;;;;;;;5067617;28;20190;-74
2022/03/07 07:46:28;;;;;;;11.43;3.65;;;;;;;;;;5073680;28;20425;-74
2022/03/07 07:48:54;;;;;;;10.53;5.03;;;;;;;;;;5067736;28;20206;-74
2022/03/07 07:51:20;;;;;;;12.07;6.90;;;;;;;;;;5056340;28;20425;-74
2022/03/07 07:53:46;;;;;;;9.40;5.95;;;;;;;;;;5057241;28;20258;-74
2022/03/07 07:56:12;;;;;;;6.73;3.00;;;;;;;;;;5060581;28;20270;-74
2022/03/07 07:58:39;;;;;;;9.37;4.20;;;;;;;;;;5063443;28;20441;-73
2022/03/07 08:01:05;;;;;;;9.13;5.45;;;;;;;;;;5060788;28;20421;-74
2022/03/07 08:03:31;;;;;;;10.88;4.65;;;;;;;;;;5053098;28;20574;-74
2022/03/07 08:05:57;;;;;;;7.40;3.88;;;;;;;;;;5058829;28;20278;-74
2022/03/07 08:08:23;;;;;;;10.40;5.65;;;;;;;;;;5058750;28;20222;-74
2022/03/07 08:10:49;;;;;;;11.63;5.75;;;;;;;;;;5051928;28;20195;-74
2022/03/07 08:13:16;;;;;;;11.60;4.70;;;;;;;;;;5054995;28;20263;-74
2022/03/07 08:15:42;;;;;;;8.85;4.03;;;;;;;;;;5053189;28;20187;-74
2022/03/07 08:18:08;;;;;;;7.88;4.30;;;;;;;;;;5065419;28;20185;-73
2022/03/07 08:20:35;;;;;;;7.00;3.65;;;3.40;99.90;;;;;;5049103;28;20187;-74
2022/03/07 08:23:01;;;;;;;7.20;3.55;;;;;;;;;;5100472;28;20183;-73
2022/03/07 08:25:27;;;;;;;13.85;4.97;;;;;;;;;;5056322;28;20211;-74
2022/03/07 08:27:53;;;;;;;10.20;4.38;;;3.30;99.90;;;;;;5058731;28;20210;-74
2022/03/07 08:30:20;;;;;;;11.27;4.25;;;;;;;;;;5069189;28;20180;-74
2022/03/07 08:32:46;;;;;;;11.90;4.10;;;;;;;;;;5068922;28;20635;-74
2022/03/07 08:35:13;;;;;;;15.55;5.43;;;;;;;;;;5055798;28;20172;-74
2022/03/07 08:37:40;;;;;;;12.32;4.78;;;2.90;99.90;;;;;;5056669;28;20199;-71
2022/03/07 08:40:07;;;;;;;10.15;4.82;;;;;;;;;;5060237;28;20560;-71
2022/03/07 08:42:34;;;;;;;8.38;4.25;;;;;;;;;;5059143;28;20187;-71
2022/03/07 08:45:00;;;;;;;12.48;4.70;;;;;;;;;;5062493;28;20253;-72
2022/03/07 08:47:26;;;;;;;9.00;4.10;;;;;;;;;;5060884;28;20199;-72
2022/03/07 08:49:53;;;;;;;12.32;6.00;;;2.90;99.90;;;;;;5049775;28;20672;-71
2022/03/07 08:52:19;;;;;;;17.63;6.07;;;;;;;;;;5047640;28;20203;-73
2022/03/07 08:54:49;;;;;;;10.70;4.50;;;;;;;;;;5056894;28;20210;-74
2022/03/07 08:57:15;;;;;;;8.10;3.80;;;;;;;;;;5052725;28;20426;-73
2022/03/07 08:59:41;;;;;;;12.85;4.45;;;;;;;;;;5061659;28;20257;-74
2022/03/07 09:02:09;;;;;;;12.63;4.40;;;;;;;;;;5055484;28;20184;-74
2022/03/07 09:04:35;;;;;;;8.98;4.05;;;;;;;;;;5067736;28;20282;-73
2022/03/07 09:07:01;;;;;;;11.85;4.28;;;;;;;;;;5069413;28;20282;-74
2022/03/07 09:09:28;;;;;;;7.20;4.50;;;;;;;;;;5058722;28;20318;-72
2022/03/07 09:11:54;;;;;;;6.72;3.83;;;;;;;;;;5057153;28;20426;-72
2022/03/07 09:14:20;;;;;;;29.42;5.95;;;;;;;;;;5068616;28;20647;-72
2022/03/07 09:16:47;;;;;;;13.55;4.20;;;3.10;99.90;;;;;;5051825;28;20636;-72
2022/03/07 09:19:13;;;;;;;7.30;3.50;;;;;;;;;;5062884;28;20176;-71
2022/03/07 09:21:39;;;;;;;8.43;3.88;;;;;;;;;;5061558;28;20262;-71
2022/03/07 09:24:05;;;;;;;7.57;3.50;;;;;;;;;;5073736;28;20343;-71
2022/03/07 09:26:31;;;;;;;7.80;3.33;;;;;;;;;;5055537;28;20431;-71
2022/03/07 09:28:57;;;;;;;7.13;3.58;;;;;;;;;;5057719;28;20256;-72
2022/03/07 09:31:23;;;;;;;8.70;4.03;;;;;;;;;;5052739;28;20187;-71
2022/03/07 09:33:50;;;;;;;7.93;2.70;;;;;;;;;;5071067;28;20202;-71
2022/03/07 09:36:16;;;;;;;9.55;4.10;;;;;;;;;;5067357;28;20500;-71
2022/03/07 09:38:43;;;;;;;6.60;3.90;;;;;;;;;;5058592;28;20351;-74
2022/03/07 09:41:09;;;;;;;7.38;3.25;;;;;;;;;;5051535;28;20266;-74
2022/03/07 09:43:36;;;;;;;11.75;3.72;;;;;;;;;;5048895;28;20272;-74
2022/03/07 09:46:02;;;;;;;6.25;2.38;;;;;;;;;;5048735;28;20195;-74
2022/03/07 09:48:28;;;;;;;4.95;3.20;;;;;;;;;;5056934;28;20203;-74
2022/03/07 09:50:54;;;;;;;7.43;4.03;;;;;;;;;;5060694;28;20171;-74
2022/03/07 09:53:21;;;;;;;7.47;3.37;;;;;;;;;;5039800;28;20221;-74
2022/03/07 09:55:47;;;;;;;6.47;3.53;;;;;;;;;;5055891;28;20414;-74
2022/03/07 09:58:14;;;;;;;11.05;3.42;;;;;;;;;;5044204;28;20205;-74
2022/03/07 10:00:41;;;;;;;8.18;4.28;;;;;;;;;;5064503;28;20182;-73
2022/03/07 10:03:11;;;;;;;6.45;3.55;;;4.30;99.90;;;;;;5062203;28;20374;-74
2022/03/07 10:05:38;;;;;;;9.43;3.45;;;;;;;;;;5057860;28;20612;-74
2022/03/07 10:08:06;;;;;;;5.90;3.50;;;;;;;;;;5057812;28;20718;-71
2022/03/07 10:10:42;;;;;;;8.27;3.92;;;4.30;99.90;;;;;;5059210;28;20191;-71
2022/03/07 10:13:10;;;;;;;14.63;4.20;;;4.40;99.90;;;;;;5057780;28;20188;-71
2022/03/07 10:15:38;;;;;;;10.45;4.10;;;4.50;99.90;;;;;;5065604;28;20182;-71
2022/03/07 10:18:04;;;;;;;11.52;4.30;;;;;;;;;;5053344;28;20727;-71
2022/03/07 10:20:31;;;;;;;10.03;4.20;;;;;;;;;;5055822;28;20195;-71
2022/03/07 10:23:00;;;;;;;7.50;3.73;;;4.40;99.90;;;;;;5045911;28;20501;-72
2022/03/07 10:25:27;;;;;;;8.60;3.80;;;;;;;;;;5053635;28;20430;-72
2022/03/07 10:27:54;;;;;;;6.47;3.37;;;4.60;99.90;;;;;;5066339;28;20452;-72
2022/03/07 10:30:24;;;;;;;13.90;4.77;;;;;;;;;;5063451;28;20475;-72
2022/03/07 10:32:56;;;;;;;11.33;3.80;;;4.70;99.90;;;;;;5050822;28;20406;-72
2022/03/07 10:35:27;;;;;;;9.93;4.60;;;4.90;99.90;;;;;;5052856;28;20422;-72
2022/03/07 10:38:17;;;;;;;9.03;4.40;;;5.00;99.90;;;;;;5057982;28;20469;-72
2022/03/07 10:40:52;;;;;;;7.83;4.40;;;5.10;99.90;;;;;;5054619;28;20440;-74
2022/03/07 10:43:18;;;;;;;9.80;3.97;;;;;;;;;;5059532;28;20420;-74
2022/03/07 10:45:55;;;;;;;15.07;4.37;;;5.10;99.90;;;;;;5075727;28;20405;-75
2022/03/07 10:48:21;;;;;;;153.43;14.77;;;;;;;;;;5051646;28;20453;-74
2022/03/07 10:50:49;;;;;;;9.70;4.60;;;4.80;99.90;;;;;;5057482;28;20783;-74
2022/03/07 10:53:16;;;;;;;9.70;4.33;;;;;;;;;;5058162;28;20508;-74
2022/03/07 10:55:57;;;;;;;7.00;4.00;;;4.90;99.90;;;;;;5055343;28;20471;-72
2022/03/07 10:58:23;;;;;;;8.80;4.27;;;;;;;;;;5063889;28;20918;-72
2022/03/07 11:01:07;;;;;;;10.93;3.33;;;4.80;99.90;;;;;;5052132;28;20475;-72
2022/03/07 11:03:34;;;;;;;9.67;3.90;;;5.10;1.00;;;;;;5055634;28;20444;-72
2022/03/07 11:06:01;;;;;;;9.80;4.47;;;;;;;;;;5061455;28;20791;-71
2022/03/07 11:08:27;;;;;;;10.63;4.33;;;5.10;99.90;;;;;;5071246;28;20464;-71
2022/03/07 11:10:57;;;;;;;9.43;4.47;;;5.10;99.90;;;;;;5055598;28;20837;-76
2022/03/07 11:13:29;;;;;;;9.30;4.07;;;5.00;99.90;;;;;;5058754;28;20429;-75
2022/03/07 11:16:04;;;;;;;13.03;4.93;;;4.90;99.90;;;;;;5048599;28;20470;-74
2022/03/07 11:18:31;;;;;;;15.87;4.57;;;;;;;;;;5054779;28;20433;-75
2022/03/07 11:21:05;;;;;;;8.80;5.27;;;;;;;;;;5065199;28;20453;-72
2022/03/07 11:23:31;;;;;;;9.83;4.70;;;;;;;;;;5066735;28;20413;-73
2022/03/07 11:25:59;;;;;;;11.70;4.90;;;5.00;99.90;;;;;;5064547;28;20455;-71
2022/03/07 11:28:26;;;;;;;5.00;2.30;;;;;;;;;;5072151;28;20470;-71
2022/03/07 11:30:52;;;;;;;12.30;4.23;;;;;;;;;;5063186;28;20536;-71
2022/03/07 11:33:21;;;;;;;8.83;4.37;;;5.00;99.90;;;;;;5069592;28;20410;-71
2022/03/07 11:35:49;;;;;;;11.13;4.53;;;5.10;99.90;;;;;;5056085;28;20473;-71
2022/03/07 11:38:20;;;;;;;8.10;4.50;;;5.10;99.90;;;;;;5056194;28;20474;-71
2022/03/07 11:41:01;;;;;;;14.77;4.83;;;5.30;99.90;;;;;;5055789;28;20437;-72
2022/03/07 11:43:32;;;;;;;14.47;4.80;;;5.40;99.90;;;;;;5052745;28;20942;-72
2022/03/07 11:46:00;;;;;;;9.00;4.50;;;5.60;99.90;;;;;;5056413;28;20483;-71
2022/03/07 11:48:26;;;;;;;15.80;5.40;;;;;;;;;;5061126;28;20464;-71
2022/03/07 11:50:52;;;;;;;11.33;5.07;;;;;;;;;;5058456;28;20433;-72
2022/03/07 11:53:20;;;;;;;18.33;5.13;;;;;;;;;;5041992;28;20442;-71
2022/03/07 11:55:48;;;;;;;7.97;4.00;;;5.70;99.90;;;;;;5047625;28;20945;-75
2022/03/07 11:58:35;;;;;;;10.90;5.00;;;5.70;99.90;;;;;;5063621;28;20776;-73
2022/03/07 12:01:10;;;;;;;9.63;5.13;;;5.70;99.90;;;;;;5056684;28;20394;-73
2022/03/07 12:03:36;;;;;;;11.23;5.17;;;5.80;99.90;;;;;;5063930;28;20518;-74
2022/03/07 12:06:05;;;;;;;13.23;5.20;;;5.90;99.90;;;;;;5070403;28;20508;-74
2022/03/07 12:08:42;;;;;;;11.10;5.00;;;;;;;;;;5071337;28;20473;-74
2022/03/07 12:11:09;;;;;;;14.00;5.37;;;;;;;;;;5060113;28;20473;-74
2022/03/07 12:13:45;;;;;;;14.60;5.50;;;;;;;;;;5057450;28;20428;-74
2022/03/07 12:16:12;;;;;;;11.17;5.40;;;;;;;;;;5074754;28;20492;-74
2022/03/07 12:18:38;;;;;;;15.40;5.60;;;;;;;;;;5059122;28;20431;-74
2022/03/07 12:21:04;;;;;;;12.17;5.30;;;;;;;;;;5054479;28;20437;-75
2022/03/07 12:23:33;;;;;;;17.00;5.70;;;;;;;;;;5054157;28;20434;-74
2022/03/07 12:26:05;;;;;;;11.23;5.40;;;6.20;99.90;;;;;;5054602;28;20777;-73
2022/03/07 12:28:43;;;;;;;8.07;5.30;;;6.20;99.90;;;;;;5055441;28;20556;-73
2022/03/07 12:31:09;;;;;;;11.70;5.00;;;;;;;;;;5059769;28;20892;-73
2022/03/07 12:33:36;;;;;;;12.20;5.77;;;;;;;;;;5074136;28;20817;-73
2022/03/07 12:36:12;;;;;;;9.20;4.70;;;5.80;99.90;;;;;;5061475;28;20785;-73
2022/03/07 12:38:44;;;;;;;13.13;5.17;;;;;;;;;;5057231;28;20448;-73
2022/03/07 12:41:10;;;;;;;7.83;4.20;;;;;;;;;;5065309;28;20454;-73
2022/03/07 12:43:38;;;;;;;8.77;5.00;;;;;;;;;;5059480;28;20425;-73
2022/03/07 12:46:04;;;;;;;8.27;4.73;;;;;;;;;;5054313;28;20426;-73
2022/03/07 12:48:38;;;;;;;10.50;4.90;;;6.10;99.90;;;;;;5052546;28;20461;-74
2022/03/07 12:51:06;;;;;;;21.07;5.60;;;6.30;99.90;;;;;;5064114;28;20409;-73
2022/03/07 12:53:34;;;;;;;6.97;4.17;;;6.40;99.90;;;;;;5090423;28;20438;-74
2022/03/07 12:56:04;;;;;;;8.70;4.37;;;6.30;99.90;;;;;;5059178;28;20980;-73
2022/03/07 12:58:30;;;;;;;7.23;3.23;;;;;;;;;;5053974;28;20422;-73
2022/03/07 13:00:57;;;;;;;8.77;4.57;;;;;;;;;;5052925;28;20433;-74
2022/03/07 13:03:24;;;;;;;8.07;4.93;;;;;;;;;;5052618;28;20405;-73
2022/03/07 13:06:00;;;;;;;11.00;5.37;;;6.30;99.90;;;;;;5064433;28;20429;-74
2022/03/07 13:08:26;;;;;;;7.83;4.37;;;;;;;;;;5063103;28;20460;-74
2022/03/07 13:10:52;;;;;;;7.67;4.37;;;;;;;;;;5072797;28;20413;-73
2022/03/07 13:13:18;;;;;;;12.10;4.50;;;;;;;;;;5071647;28;20768;-73
2022/03/07 13:15:44;;;;;;;6.67;4.60;;;;;;;;;;5062502;28;20421;-73
2022/03/07 13:18:10;;;;;;;9.10;4.30;;;;;;;;;;5065085;28;20986;-73
2022/03/07 13:20:36;;;;;;;7.60;4.30;;;;;;;;;;5056031;28;21822;-72
2022/03/07 13:23:04;;;;;;;8.70;4.60;;;6.50;99.90;;;;;;5051511;28;20787;-73
2022/03/07 13:25:44;;;;;;;12.83;4.50;;;6.70;99.90;;;;;;5058448;28;20515;-72
2022/03/07 13:28:11;;;;;;;6.17;3.83;;;6.70;99.90;;;;;;5066706;28;20461;-72
2022/03/07 13:30:38;;;;;;;6.27;4.10;;;6.80;99.90;;;;;;5073440;28;20444;-72
2022/03/07 13:33:08;;;;;;;4.67;3.57;;;6.80;99.90;;;;;;5066266;28;20767;-72
2022/03/07 13:35:38;;;;;;;8.03;3.63;;;6.90;99.90;;;;;;5053088;28;20437;-72
2022/03/07 13:38:04;;;;;;;6.67;4.03;;;;;;;;;;5058957;28;20432;-72
2022/03/07 13:40:33;;;;;;;10.73;3.97;;;;;;;;;;5052981;28;20421;-74
2022/03/07 13:42:59;;;;;;;8.17;3.97;;;;;;;;;;5053266;28;20430;-74
2022/03/07 13:45:27;;;;;;;5.00;3.53;;;;;;;;;;5051341;28;20438;-74
2022/03/07 13:47:56;;;;;;;9.73;4.63;;;7.10;99.90;;;;;;5052057;28;20467;-74
2022/03/07 13:50:45;;;;;;;6.63;3.80;;;;;;;;;;5053189;28;20439;-74
2022/03/07 13:53:15;;;;;;;7.43;4.17;;;7.00;99.90;;;;;;5056856;28;20410;-74
2022/03/07 13:55:45;;;;;;;10.37;4.20;;;6.90;99.90;;;;;;5058581;28;20472;-73
2022/03/07 13:58:15;;;;;;;7.33;4.10;;;;;;;;;;5071056;28;20857;-73
2022/03/07 14:00:41;;;;;;;5.53;3.47;;;;;;;;;;5072095;28;20928;-73
2022/03/07 14:03:07;;;;;;;4.57;2.10;;;6.80;99.90;;;;;;5070957;28;20417;-73
2022/03/07 14:05:41;;;;;;;7.73;3.90;;;;;;;;;;5072826;28;20468;-73
2022/03/07 14:08:07;;;;;;;4.80;3.00;;;6.90;99.90;;;;;;5072728;28;21020;-73
2022/03/07 14:10:33;;;;;;;5.87;3.40;;;;;;;;;;5071958;28;20417;-72
2022/03/07 14:13:00;;;;;;;13.87;3.90;;;7.00;99.90;;;;;;5072760;28;20914;-73